Time;durP1;ratioP1;P1;durP2;ratioP2;P2;SDS_P1;SDS_P2;PMS_P1;PMS_P2;Temp;Humidity;BMP_temperature;BMP_pressure;BME280_temperature;BME280_humidity;BME280_pressure;Samples;Min_cycle;Max_cycle;Signal;HPM_P1;HPM_P2
2022/07/19 00:02:04;;;;;;;6.03;2.90;;;;;;;;;;4954088;29;20047;-67
2022/07/19 00:04:30;;;;;;;6.75;2.75;;;;;;;;;;4953727;29;20544;-70
2022/07/19 00:06:56;;;;;;;8.00;3.05;;;;;;;;;;4953969;28;20283;-68
2022/07/19 00:09:23;;;;;;;9.32;3.47;;;;;;;;;;4954191;28;20055;-71
2022/07/19 00:11:49;;;;;;;7.35;3.30;;;;;;;;;;4953993;28;20050;-71
2022/07/19 00:14:16;;;;;;;8.30;3.08;;;;;;;;;;4953903;29;20489;-68
2022/07/19 00:16:42;;;;;;;7.85;2.78;;;;;;;;;;4953088;28;20035;-68
2022/07/19 00:19:08;;;;;;;10.55;3.40;;;;;;;;;;4953870;28;20030;-68
2022/07/19 00:21:34;;;;;;;8.50;3.50;;;;;;;;;;4953402;28;20036;-69
2022/07/19 00:24:00;;;;;;;10.25;3.35;;;;;;;;;;4953687;28;20518;-68
2022/07/19 00:26:27;;;;;;;8.45;3.40;;;;;;;;;;4953534;28;20482;-67
2022/07/19 00:28:54;;;;;;;10.80;2.97;;;;;;;;;;4953478;28;20066;-68
2022/07/19 00:31:24;;;;;;;7.32;3.00;;;;;;;;;;4953308;29;20058;-69
2022/07/19 00:33:50;;;;;;;8.98;3.08;;;;;;;;;;4953408;28;20042;-68
2022/07/19 00:36:17;;;;;;;4.78;3.17;;;;;;;;;;4953679;28;20039;-68
2022/07/19 00:38:43;;;;;;;5.82;2.92;;;;;;;;;;4953679;28;20377;-70
2022/07/19 00:41:09;;;;;;;6.80;3.15;;;;;;;;;;4944810;28;20106;-68
2022/07/19 00:43:34;;;;;;;11.13;3.63;;;;;;;;;;4934114;29;20459;-68
2022/07/19 00:46:00;;;;;;;5.80;3.30;;;;;;;;;;4934547;29;20542;-70
2022/07/19 00:48:26;;;;;;;6.63;3.70;;;;;;;;;;4938314;28;20035;-73
2022/07/19 00:50:52;;;;;;;10.10;3.45;;;;;;;;;;4934227;29;20048;-69
2022/07/19 00:53:19;;;;;;;7.80;3.00;;;;;;;;;;4934438;29;20035;-67
2022/07/19 00:55:45;;;;;;;6.22;3.10;;;;;;;;;;4934486;29;20076;-72
2022/07/19 00:58:15;;;;;;;10.00;2.95;;;;;;;;;;4934438;29;20034;-68
2022/07/19 01:00:42;;;;;;;8.23;3.00;;;;;;;;;;4935435;29;20391;-70
2022/07/19 01:03:08;;;;;;;6.15;2.90;;;;;;;;;;4937633;29;20102;-72
2022/07/19 01:09:14;;;;;;;11.90;3.20;;;;;;;;;;4952442;28;20568;-70
2022/07/19 01:11:41;;;;;;;9.02;3.40;;;;;;;;;;4957153;29;20046;-70
2022/07/19 01:14:06;;;;;;;6.55;3.38;;;;;;;;;;4956982;28;20019;-71
2022/07/19 01:16:32;;;;;;;6.95;3.40;;;;;;;;;;4956956;28;20031;-69
2022/07/19 01:18:58;;;;;;;12.05;3.35;;;;;;;;;;4956921;28;20033;-69
2022/07/19 01:21:26;;;;;;;12.82;4.28;;;;;;;;;;4952387;28;20076;-70
2022/07/19 01:23:52;;;;;;;7.85;4.72;;;;;;;;;;4937644;29;20023;-69
2022/07/19 01:26:18;;;;;;;14.50;4.93;;;;;;;;;;4942740;28;20051;-71
2022/07/19 01:28:45;;;;;;;15.38;6.32;;;;;;;;;;4937223;29;20048;-69
2022/07/19 01:31:11;;;;;;;11.35;6.70;;;;;;;;;;4937166;29;20083;-69
2022/07/19 01:33:41;;;;;;;11.45;5.93;;;;;;;;;;4937081;29;20035;-70
2022/07/19 01:36:08;;;;;;;14.48;5.70;;;;;;;;;;4939810;29;20031;-71
2022/07/19 01:38:34;;;;;;;10.07;5.18;;;;;;;;;;4945907;29;20382;-70
2022/07/19 01:41:00;;;;;;;12.50;5.38;;;;;;;;;;4942477;29;20478;-73
2022/07/19 01:43:25;;;;;;;9.43;5.40;;;;;;;;;;4942988;28;20032;-70
2022/07/19 01:45:53;;;;;;;7.25;4.88;;;;;;;;;;4937213;29;20070;-70
2022/07/19 01:48:20;;;;;;;10.50;4.85;;;;;;;;;;4937390;29;20034;-69
2022/07/19 01:50:46;;;;;;;8.55;4.60;;;;;;;;;;4937082;29;20035;-69
2022/07/19 01:53:12;;;;;;;7.65;4.20;;;;;;;;;;4937205;29;20169;-68
2022/07/19 01:55:38;;;;;;;11.93;5.00;;;;;;;;;;4936955;29;20028;-69
2022/07/19 01:58:04;;;;;;;7.40;4.22;;;;;;;;;;4936875;29;20102;-70
2022/07/19 02:00:30;;;;;;;6.70;2.88;;;;;;;;;;4936830;29;20123;-68
2022/07/19 02:02:56;;;;;;;10.48;4.40;;;;;;;;;;4937147;29;20479;-69
2022/07/19 02:05:22;;;;;;;6.75;3.85;;;;;;;;;;4937124;29;20087;-69
2022/07/19 02:07:48;;;;;;;9.00;3.50;;;;;;;;;;4939415;29;20389;-69
2022/07/19 02:10:15;;;;;;;7.65;3.15;;;;;;;;;;4945207;29;20087;-69
2022/07/19 02:12:40;;;;;;;9.20;3.15;;;;;;;;;;4934552;29;20473;-69
2022/07/19 02:15:07;;;;;;;6.32;3.17;;;;;;;;;;4936833;29;20139;-68
2022/07/19 02:17:33;;;;;;;5.82;2.88;;;;;;;;;;4936840;29;20098;-69
2022/07/19 02:19:59;;;;;;;8.70;2.80;;;;;;;;;;4939697;28;20032;-69
2022/07/19 02:22:25;;;;;;;8.95;3.05;;;;;;;;;;4954081;28;20050;-68
2022/07/19 02:24:51;;;;;;;8.60;3.00;;;;;;;;;;4955546;28;20038;-70
2022/07/19 02:27:17;;;;;;;5.95;2.72;;;;;;;;;;4955339;28;20019;-70
2022/07/19 02:29:43;;;;;;;9.80;3.30;;;;;;;;;;4955464;28;20044;-73
2022/07/19 02:32:09;;;;;;;5.57;2.85;;;;;;;;;;4954078;28;20098;-71
2022/07/19 02:34:35;;;;;;;8.35;3.10;;;;;;;;;;4955097;28;20090;-71
2022/07/19 02:37:01;;;;;;;7.90;3.42;;;;;;;;;;4954457;28;20102;-72
2022/07/19 02:39:27;;;;;;;7.95;3.10;;;;;;;;;;4954870;28;20031;-69
2022/07/19 02:41:53;;;;;;;6.05;2.90;;;;;;;;;;4953575;28;20461;-71
2022/07/19 02:44:19;;;;;;;11.13;2.88;;;;;;;;;;4954588;28;20054;-71
2022/07/19 02:46:45;;;;;;;8.38;3.35;;;;;;;;;;4953933;28;20035;-69
2022/07/19 02:49:11;;;;;;;14.52;2.85;;;;;;;;;;4954910;28;20537;-71
2022/07/19 02:51:36;;;;;;;8.95;2.78;;;;;;;;;;4953897;28;20126;-71
2022/07/19 02:54:02;;;;;;;8.77;2.72;;;;;;;;;;4955239;28;20051;-72
2022/07/19 02:56:28;;;;;;;5.53;2.83;;;;;;;;;;4953357;28;20019;-73
2022/07/19 02:58:54;;;;;;;9.48;2.60;;;;;;;;;;4952394;28;20066;-69
2022/07/19 03:01:20;;;;;;;5.63;2.45;;;;;;;;;;4953527;28;20039;-69
2022/07/19 03:03:50;;;;;;;15.20;3.58;;;;;;;;;;4954433;28;20474;-69
2022/07/19 03:06:18;;;;;;;6.60;2.60;;;;;;;;;;4953790;28;20394;-73
2022/07/19 03:08:45;;;;;;;8.90;2.70;;;;;;;;;;4954330;28;20032;-69
2022/07/19 03:11:12;;;;;;;6.32;2.90;;;;;;;;;;4953303;28;20035;-70
2022/07/19 03:13:38;;;;;;;12.02;3.47;;;;;;;;;;4953611;28;20090;-69
2022/07/19 03:16:05;;;;;;;8.32;2.60;;;;;;;;;;4953779;29;20063;-68
2022/07/19 03:18:31;;;;;;;6.03;2.60;;;;;;;;;;4953962;28;20053;-68
2022/07/19 03:20:58;;;;;;;6.22;2.90;;;;;;;;;;4952841;28;20031;-71
2022/07/19 03:23:30;;;;;;;6.07;2.33;;;;;;;;;;4953488;28;20074;-69
2022/07/19 03:25:56;;;;;;;8.80;2.30;;;;;;;;;;4953600;28;20054;-69
2022/07/19 03:28:22;;;;;;;4.57;2.10;;;;;;;;;;4952994;28;20510;-67
2022/07/19 03:30:48;;;;;;;8.80;2.35;;;;;;;;;;4952752;28;20039;-69
2022/07/19 03:33:17;;;;;;;7.53;2.20;;;;;;;;;;4952551;28;20038;-68
2022/07/19 03:35:44;;;;;;;8.32;2.80;;;;;;;;;;4952313;28;20035;-73
2022/07/19 03:38:11;;;;;;;5.45;2.13;;;;;;;;;;4951703;28;20019;-69
2022/07/19 03:40:37;;;;;;;7.53;2.22;;;;;;;;;;4952553;29;20031;-69
2022/07/19 03:43:03;;;;;;;6.53;2.20;;;;;;;;;;4952251;28;20027;-69
2022/07/19 03:45:29;;;;;;;6.13;2.58;;;;;;;;;;4952188;28;20481;-70
2022/07/19 03:47:55;;;;;;;14.73;2.72;;;;;;;;;;4945821;28;20059;-69
2022/07/19 03:50:21;;;;;;;6.10;2.33;;;;;;;;;;4948417;28;20179;-68
2022/07/19 03:52:47;;;;;;;7.20;2.40;;;;;;;;;;4951639;28;20488;-68
2022/07/19 03:55:12;;;;;;;9.73;2.67;;;;;;;;;;4951934;28;20442;-69
2022/07/19 03:57:38;;;;;;;7.13;2.40;;;;;;;;;;4951942;28;20033;-68
2022/07/19 04:00:06;;;;;;;11.77;2.55;;;;;;;;;;4952289;28;20043;-69
2022/07/19 04:02:37;;;;;;;6.25;2.00;;;;;;;;;;4951538;28;20039;-70
2022/07/19 04:05:05;;;;;;;9.65;2.58;;;;;;;;;;4952221;28;20105;-70
2022/07/19 04:07:31;;;;;;;12.75;2.53;;;;;;;;;;4951433;28;20402;-70
2022/07/19 04:09:57;;;;;;;6.07;2.28;;;;;;;;;;4952291;28;20497;-71
2022/07/19 04:12:23;;;;;;;8.68;2.30;;;;;;;;;;4951754;28;20032;-71
2022/07/19 04:14:48;;;;;;;6.18;2.28;;;;;;;;;;4952237;28;20126;-71
2022/07/19 04:17:14;;;;;;;8.02;1.90;;;;;;;;;;4951545;28;20027;-71
2022/07/19 04:19:40;;;;;;;5.13;1.85;;;;;;;;;;4952422;28;20069;-75
2022/07/19 04:22:06;;;;;;;6.03;2.10;;;;;;;;;;4950946;28;20051;-71
2022/07/19 04:24:32;;;;;;;5.50;1.90;;;;;;;;;;4952434;28;20036;-71
2022/07/19 04:26:57;;;;;;;9.38;2.05;;;;;;;;;;4951465;28;20484;-71
2022/07/19 04:29:23;;;;;;;5.18;1.90;;;;;;;;;;4895214;28;1650846;-70
2022/07/19 04:31:49;;;;;;;9.80;2.20;;;;;;;;;;4951871;28;20050;-70
2022/07/19 04:34:15;;;;;;;6.65;1.70;;;;;;;;;;4952502;28;20118;-72
2022/07/19 04:36:41;;;;;;;4.13;2.13;;;;;;;;;;4954205;29;20471;-72
2022/07/19 04:39:07;;;;;;;6.40;1.98;;;;;;;;;;4956261;28;20465;-74
2022/07/19 04:41:32;;;;;;;8.00;1.88;;;;;;;;;;4956168;28;20035;-72
2022/07/19 04:43:58;;;;;;;5.47;1.70;;;;;;;;;;4956289;28;20055;-71
2022/07/19 04:46:24;;;;;;;8.18;1.70;;;;;;;;;;4957346;28;20058;-70
2022/07/19 04:48:50;;;;;;;10.85;2.00;;;;;;;;;;4957913;28;20035;-72
2022/07/19 04:51:15;;;;;;;6.75;1.77;;;;;;;;;;4957589;28;20046;-72
2022/07/19 04:53:41;;;;;;;5.75;1.55;;;;;;;;;;4957574;28;20034;-69
2022/07/19 04:56:07;;;;;;;7.85;1.92;;;;;;;;;;4957803;28;20063;-70
2022/07/19 04:58:33;;;;;;;9.90;1.92;;;;;;;;;;4957742;28;20483;-73
2022/07/19 05:00:59;;;;;;;5.70;1.98;;;;;;;;;;4957622;28;20033;-70
2022/07/19 05:03:25;;;;;;;7.50;2.22;;;;;;;;;;4957552;28;20031;-70
2022/07/19 05:05:50;;;;;;;10.05;1.88;;;;;;;;;;4955728;28;20098;-70
2022/07/19 05:08:17;;;;;;;7.22;2.00;;;;;;;;;;4956422;28;20472;-71
2022/07/19 05:10:43;;;;;;;8.27;1.90;;;;;;;;;;4956131;29;20044;-68
2022/07/19 05:13:09;;;;;;;5.03;1.95;;;;;;;;;;4957163;28;20106;-69
2022/07/19 05:15:36;;;;;;;5.38;1.80;;;;;;;;;;4957331;28;20146;-69
2022/07/19 05:18:02;;;;;;;4.88;1.58;;;;;;;;;;4951090;28;20490;-70
2022/07/19 05:20:27;;;;;;;10.48;1.60;;;;;;;;;;4942667;28;20032;-70
2022/07/19 05:22:53;;;;;;;7.65;2.00;;;;;;;;;;4948347;28;20061;-70
2022/07/19 05:25:19;;;;;;;7.43;2.00;;;;;;;;;;4956563;28;20027;-69
2022/07/19 05:27:45;;;;;;;6.85;1.52;;;;;;;;;;4956601;28;20047;-70
2022/07/19 05:30:12;;;;;;;5.20;2.08;;;;;;;;;;4956490;28;20027;-71
2022/07/19 05:32:38;;;;;;;4.55;1.55;;;;;;;;;;4956312;28;20039;-71
2022/07/19 05:35:04;;;;;;;5.90;1.70;;;;;;;;;;4956682;28;20031;-71
2022/07/19 05:37:30;;;;;;;3.72;1.50;;;;;;;;;;4956768;28;20035;-71
2022/07/19 05:39:56;;;;;;;6.00;1.67;;;;;;;;;;4956678;28;20030;-71
2022/07/19 05:42:22;;;;;;;6.25;2.05;;;;;;;;;;4956136;28;20039;-70
2022/07/19 05:44:48;;;;;;;3.55;1.67;;;;;;;;;;4956354;28;20057;-69
2022/07/19 05:47:15;;;;;;;7.60;1.40;;;;;;;;;;4953314;28;20070;-73
2022/07/19 05:49:41;;;;;;;7.20;1.85;;;;;;;;;;4953671;29;20027;-73
2022/07/19 05:52:07;;;;;;;7.55;1.60;;;;;;;;;;4955356;28;20206;-73
2022/07/19 05:54:33;;;;;;;4.13;1.60;;;;;;;;;;4954179;28;20042;-74
2022/07/19 05:56:59;;;;;;;4.85;1.75;;;;;;;;;;4956316;28;20031;-73
2022/07/19 05:59:24;;;;;;;5.47;1.40;;;;;;;;;;4975336;28;20019;-71
2022/07/19 06:01:50;;;;;;;4.90;1.42;;;;;;;;;;4966891;28;20031;-74
2022/07/19 06:04:16;;;;;;;6.82;1.85;;;;;;;;;;4955682;28;20481;-74
2022/07/19 06:06:43;;;;;;;7.30;2.10;;;;;;;;;;4968654;28;20043;-72
2022/07/19 06:09:11;;;;;;;3.95;1.50;;;;;;;;;;4955999;28;20043;-73
2022/07/19 06:11:39;;;;;;;3.33;1.35;;;;;;;;;;4954430;29;20138;-72
2022/07/19 06:14:06;;;;;;;5.97;2.00;;;;;;;;;;4947807;28;20024;-73
2022/07/19 06:16:32;;;;;;;5.25;2.00;;;;;;;;;;4954909;28;20125;-74
2022/07/19 06:18:58;;;;;;;4.80;1.30;;;;;;;;;;4945950;28;20118;-73
2022/07/19 06:21:24;;;;;;;7.38;2.55;;;;;;;;;;4955379;29;20035;-75
2022/07/19 06:23:50;;;;;;;4.88;1.35;;;;;;;;;;4955802;28;20034;-73
2022/07/19 06:26:16;;;;;;;5.88;1.50;;;;;;;;;;4955665;28;20482;-72
2022/07/19 06:28:44;;;;;;;7.97;1.90;;;;;;;;;;4960446;28;20043;-72
2022/07/19 06:31:11;;;;;;;6.50;1.75;;;;;;;;;;4975134;28;20062;-72
2022/07/19 06:33:41;;;;;;;6.32;1.88;;;;;;;;;;4974748;28;20147;-71
2022/07/19 06:36:08;;;;;;;7.00;1.33;;;;;;;;;;4956644;28;20110;-71
2022/07/19 06:38:34;;;;;;;6.03;1.67;;;;;;;;;;4955549;28;20026;-71
2022/07/19 06:41:00;;;;;;;6.53;1.60;;;;;;;;;;4959221;28;20035;-73
2022/07/19 06:43:25;;;;;;;4.43;1.42;;;;;;;;;;4962258;28;20024;-73
2022/07/19 06:45:51;;;;;;;8.68;1.60;;;;;;;;;;4952539;28;20466;-72
2022/07/19 06:48:17;;;;;;;4.88;1.65;;;;;;;;;;4953934;28;20493;-72
2022/07/19 06:50:43;;;;;;;5.45;1.60;;;;;;;;;;4952721;28;20513;-73
2022/07/19 06:53:09;;;;;;;8.35;1.65;;;;;;;;;;4954197;28;20023;-71
2022/07/19 06:55:36;;;;;;;5.40;1.67;;;;;;;;;;4966893;28;20084;-72
2022/07/19 06:58:02;;;;;;;5.00;1.50;;;;;;;;;;4952997;28;20022;-71
2022/07/19 07:00:27;;;;;;;5.53;1.55;;;;;;;;;;4953513;28;20039;-74
2022/07/19 07:02:53;;;;;;;5.57;1.67;;;;;;;;;;4953443;28;20114;-74
2022/07/19 07:05:19;;;;;;;4.45;1.35;;;;;;;;;;4953608;28;20475;-71
2022/07/19 07:07:45;;;;;;;3.08;1.50;;;;;;;;;;4952848;28;20110;-70
2022/07/19 07:10:11;;;;;;;5.60;1.65;;;;;;;;;;4954089;28;20039;-73
2022/07/19 07:12:37;;;;;;;12.07;1.52;;;;;;;;;;4952564;29;20054;-74
2022/07/19 07:15:05;;;;;;;6.22;1.38;;;;;;;;;;4953362;29;20054;-73
2022/07/19 07:17:31;;;;;;;7.32;1.50;;;;;;;;;;4952584;28;20035;-73
2022/07/19 07:19:56;;;;;;;5.95;1.83;;;;;;;;;;4952615;28;20035;-74
2022/07/19 07:22:22;;;;;;;8.75;1.70;;;;;;;;;;4952542;28;20366;-74
2022/07/19 07:24:48;;;;;;;4.65;1.60;;;;;;;;;;4971899;28;20087;-74
2022/07/19 07:27:14;;;;;;;5.45;1.85;;;;;;;;;;4972912;28;20035;-74
2022/07/19 07:29:40;;;;;;;4.78;1.52;;;;;;;;;;4972434;28;20106;-73
2022/07/19 07:32:06;;;;;;;4.03;1.50;;;;;;;;;;4972846;28;20047;-74
2022/07/19 07:34:32;;;;;;;4.57;1.60;;;;;;;;;;4955658;28;20035;-74
2022/07/19 07:36:57;;;;;;;3.13;1.88;;;;;;;;;;4953240;28;20040;-73
2022/07/19 07:39:23;;;;;;;3.47;1.65;;;;;;;;;;4953312;28;20035;-75
2022/07/19 07:41:49;;;;;;;7.32;2.03;;;;;;;;;;4953142;28;20042;-73
2022/07/19 07:44:15;;;;;;;5.63;1.63;;;;;;;;;;4952002;29;20497;-72
2022/07/19 07:46:41;;;;;;;8.32;1.90;;;;;;;;;;4970893;28;20031;-73
2022/07/19 07:49:07;;;;;;;3.47;1.60;;;;;;;;;;4972622;28;20088;-73
2022/07/19 07:51:32;;;;;;;6.22;2.30;;;;;;;;;;4972389;28;20338;-74
2022/07/19 07:53:59;;;;;;;9.77;2.15;;;;;;;;;;4972435;28;20110;-72
2022/07/19 07:56:25;;;;;;;9.38;2.10;;;;;;;;;;4969275;28;20034;-74
2022/07/19 07:58:51;;;;;;;4.82;1.75;;;;;;;;;;4952673;28;20039;-75
2022/07/19 08:01:17;;;;;;;9.90;2.40;;;;;;;;;;4953178;28;20111;-74
2022/07/19 08:03:43;;;;;;;4.88;1.75;;;;;;;;;;4953207;29;20035;-73
2022/07/19 08:06:10;;;;;;;5.10;1.95;;;;;;;;;;4952320;28;20394;-73
2022/07/19 08:08:37;;;;;;;6.82;2.20;;;;;;;;;;4953173;28;20039;-75
2022/07/19 08:11:03;;;;;;;10.63;2.70;;;;;;;;;;4951379;28;20027;-74
2022/07/19 08:13:30;;;;;;;4.50;1.73;;;;;;;;;;4952113;28;20121;-73
2022/07/19 08:15:55;;;;;;;5.47;2.10;;;;;;;;;;4951793;29;20042;-74
2022/07/19 08:18:22;;;;;;;8.52;2.20;;;;;;;;;;4953107;28;20035;-75
2022/07/19 08:20:48;;;;;;;7.32;2.30;;;;;;;;;;4960100;28;20085;-74
2022/07/19 08:23:14;;;;;;;5.28;2.15;;;;;;;;;;4972040;28;20031;-74
2022/07/19 08:25:39;;;;;;;5.18;2.10;;;;;;;;;;4964112;28;20518;-72
2022/07/19 08:28:05;;;;;;;5.32;1.83;;;;;;;;;;4952312;28;20047;-73
2022/07/19 08:30:31;;;;;;;4.85;1.90;;;;;;;;;;4952980;28;20442;-74
2022/07/19 08:32:58;;;;;;;3.05;1.20;;;;;;;;;;4967329;28;20050;-74
2022/07/19 08:35:23;;;;;;;7.22;1.42;;;;;;;;;;4971258;28;20035;-74
2022/07/19 08:37:49;;;;;;;3.55;1.02;;;;;;;;;;4972330;28;20401;-74
2022/07/19 08:40:15;;;;;;;3.30;1.40;;;;;;;;;;4957180;28;20066;-74
2022/07/19 08:42:42;;;;;;;8.82;1.55;;;;;;;;;;4952498;28;20711;-71
2022/07/19 08:45:10;;;;;;;3.72;1.42;;;;;;;;;;4952739;28;20332;-73
2022/07/19 08:47:37;;;;;;;2.65;1.00;;;;;;;;;;4952905;28;20035;-72
2022/07/19 08:50:08;;;;;;;5.20;1.20;;;;;;;;;;4961457;28;20462;-73
2022/07/19 08:52:34;;;;;;;2.65;1.25;;;;;;;;;;4932403;29;20123;-73
2022/07/19 08:55:01;;;;;;;4.63;1.25;;;;;;;;;;4933636;29;20059;-72
2022/07/19 09:00:12;;;;;;;5.18;1.50;;;;;;;;;;4933539;29;20031;-72
2022/07/19 09:02:38;;;;;;;3.03;1.45;;;;;;;;;;4968089;28;20425;-73
2022/07/19 09:05:07;;;;;;;7.15;1.60;;;;;;;;;;4971793;28;20038;-76
2022/07/19 09:07:40;;;;;;;3.60;1.40;;;;;;;;;;4970606;28;20023;-73
2022/07/19 09:10:22;;;;;;;2.30;1.10;;;;;;;;;;4971826;28;20051;-75
2022/07/19 09:12:58;;;;;;;2.30;1.38;;;;;;;;;;4959783;28;20118;-72
2022/07/19 09:15:49;;;;;;;3.83;1.58;;;;;;;;;;4952353;28;20470;-73
2022/07/19 09:18:26;;;;;;;4.05;1.45;;;;;;;;;;4951478;29;20035;-73
2022/07/19 09:20:54;;;;;;;4.97;1.20;;;;;;;;;;4952473;28;20480;-74
2022/07/19 09:23:21;;;;;;;4.93;1.65;;;;;;;;;;4956038;28;20027;-73
2022/07/19 09:25:52;;;;;;;4.85;1.40;;;;;;;;;;4956028;28;20043;-72
2022/07/19 09:28:21;;;;;;;3.55;1.25;;;;;;;;;;4955150;28;20047;-71
2022/07/19 09:30:49;;;;;;;3.75;1.63;;;;;;;;;;4956682;28;20458;-72
2022/07/19 09:33:20;;;;;;;2.90;1.20;;;;;;;;;;4954699;28;20122;-71
2022/07/19 09:35:52;;;;;;;1.60;1.17;;;;;;;;;;4955388;28;20054;-73
2022/07/19 09:38:27;;;;;;;4.05;1.55;;;;;;;;;;4956264;28;20042;-73
2022/07/19 09:41:10;;;;;;;3.67;1.70;;;;;;;;;;4955278;28;20037;-71
2022/07/19 09:44:05;;;;;;;4.15;1.30;;;;;;;;;;4955285;28;20073;-73
2022/07/19 09:46:35;;;;;;;2.85;1.50;;;;;;;;;;4955979;29;20067;-73
2022/07/19 09:49:14;;;;;;;4.45;1.88;;;;;;;;;;4954842;28;20059;-71
2022/07/19 09:51:43;;;;;;;3.67;1.50;;;;;;;;;;4958499;28;20560;-75
2022/07/19 09:54:11;;;;;;;2.35;1.42;;;;;;;;;;4974821;28;20061;-74
2022/07/19 09:56:39;;;;;;;3.30;1.55;;;;;;;;;;4974387;28;20034;-74
2022/07/19 09:59:06;;;;;;;2.22;1.48;;;;;;;;;;4958294;28;20038;-73
2022/07/19 10:01:33;;;;;;;1.40;1.00;;;;;;;;;;4955641;28;20114;-74
2022/07/19 10:04:12;;;;;;;4.53;1.30;;;;;;;;;;4954942;28;20027;-72
2022/07/19 10:06:40;;;;;;;3.03;1.52;;;;;;;;;;4974719;28;20031;-74
2022/07/19 10:09:08;;;;;;;3.67;1.42;;;;;;;;;;4974054;28;20042;-72
2022/07/19 10:11:35;;;;;;;7.13;1.35;;;;;;;;;;4971288;28;20038;-74
2022/07/19 10:14:01;;;;;;;4.40;1.48;;;;;;;;;;4954723;29;20033;-73
2022/07/19 10:16:32;;;;;;;1.80;1.30;;;;;;;;;;4953480;28;20081;-74
2022/07/19 10:19:08;;;;;;;4.97;1.17;;;;;;;;;;4951137;28;20047;-72
2022/07/19 10:21:35;;;;;;;3.33;1.40;;;;;;;;;;4952803;28;20358;-72
2022/07/19 10:24:02;;;;;;;2.75;1.30;;;;;;;;;;4952876;28;20086;-74
2022/07/19 10:26:57;;;;;;;3.33;1.42;;;;;;;;;;4952554;29;20027;-71
2022/07/19 10:29:23;;;;;;;4.47;1.20;;;;;;;;;;4952016;28;20049;-73
2022/07/19 10:32:04;;;;;;;3.42;1.50;;;;;;;;;;4952919;28;20418;-75
2022/07/19 10:34:30;;;;;;;4.25;1.40;;;;;;;;;;4950543;28;20035;-74
2022/07/19 10:36:56;;;;;;;3.05;1.20;;;;;;;;;;4952690;28;20042;-73
2022/07/19 10:39:26;;;;;;;2.80;1.30;;;;;;;;;;4954426;28;20043;-73
2022/07/19 10:42:13;;;;;;;3.50;1.63;;;;;;;;;;4953538;28;20042;-73
2022/07/19 10:44:57;;;;;;;4.40;1.60;;;;;;;;;;4955092;28;20046;-74
2022/07/19 10:47:34;;;;;;;3.10;1.50;;;;;;;;;;4954978;28;20031;-73
2022/07/19 10:50:14;;;;;;;4.32;1.10;;;;;;;;;;4954473;28;20122;-72
2022/07/19 10:52:44;;;;;;;2.20;1.17;;;;;;;;;;4954997;28;20035;-74
2022/07/19 10:55:20;;;;;;;2.13;1.38;;;;;;;;;;4954661;28;20426;-72
2022/07/19 10:57:48;;;;;;;6.10;1.50;;;;;;;;;;4954411;28;20482;-75
2022/07/19 11:00:27;;;;;;;2.95;1.70;;;;;;;;;;4954827;28;20023;-73
2022/07/19 11:03:28;;;;;;;3.53;1.25;;;;;;;;;;4954814;28;20046;-72
2022/07/19 11:06:02;;;;;;;1.95;1.10;;;;;;;;;;4954771;28;20151;-74
2022/07/19 11:08:31;;;;;;;6.13;1.30;;;;;;;;;;4954323;28;20474;-75
2022/07/19 11:11:06;;;;;;;6.00;1.30;;;;;;;;;;4953744;28;20031;-75
2022/07/19 11:13:33;;;;;;;5.90;1.38;;;;;;;;;;4954282;28;20099;-74
2022/07/19 11:16:00;;;;;;;2.83;1.35;;;;;;;;;;4953330;29;20024;-73
2022/07/19 11:18:26;;;;;;;5.95;1.30;;;;;;;;;;4952530;29;20058;-74
2022/07/19 11:20:56;;;;;;;4.28;1.48;;;;;;;;;;4954519;28;20411;-72
2022/07/19 11:23:22;;;;;;;2.88;1.42;;;;;;;;;;4954371;28;20569;-74
2022/07/19 11:25:50;;;;;;;4.07;1.70;;;;;;;;;;4953666;28;20110;-73
2022/07/19 11:28:25;;;;;;;3.95;2.17;;;;;;;;;;4953993;28;20505;-74
2022/07/19 11:30:51;;;;;;;3.25;1.58;;;;;;;;;;4954464;28;20039;-74
2022/07/19 11:33:19;;;;;;;3.80;1.60;;;;;;;;;;4953885;28;20031;-74
2022/07/19 11:36:12;;;;;;;3.17;1.48;;;;;;;;;;4937134;29;20073;-73
2022/07/19 11:38:39;;;;;;;4.38;1.20;;;;;;;;;;4952770;28;20458;-73
2022/07/19 11:41:17;;;;;;;4.85;1.63;;;;;;;;;;4953480;28;20037;-72
2022/07/19 11:43:43;;;;;;;4.50;1.35;;;;;;;;;;4954514;28;20039;-71
2022/07/19 11:46:09;;;;;;;3.05;1.50;;;;;;;;;;4953882;28;20508;-73
2022/07/19 11:48:35;;;;;;;4.15;1.60;;;;;;;;;;4952687;28;20039;-76
2022/07/19 11:51:07;;;;;;;3.03;1.58;;;;;;;;;;4954085;28;20463;-75
2022/07/19 11:53:34;;;;;;;3.03;1.45;;;;;;;;;;4954039;28;20062;-74
2022/07/19 11:56:01;;;;;;;5.63;1.65;;;;;;;;;;4953469;28;20031;-73
2022/07/19 11:58:28;;;;;;;3.50;1.50;;;;;;;;;;4953977;28;20067;-75
2022/07/19 12:01:04;;;;;;;3.15;1.60;;;;;;;;;;4952706;29;20023;-73
2022/07/19 12:03:30;;;;;;;4.88;1.88;;;;;;;;;;4953392;28;20046;-74
2022/07/19 12:06:07;;;;;;;4.45;1.50;;;;;;;;;;4954058;28;20104;-74
2022/07/19 12:08:42;;;;;;;5.13;1.60;;;;;;;;;;4953740;28;20037;-74
2022/07/19 12:11:19;;;;;;;3.08;1.60;;;;;;;;;;4953264;28;20043;-75
2022/07/19 12:13:45;;;;;;;3.00;1.48;;;;;;;;;;4953902;28;20429;-76
2022/07/19 12:16:13;;;;;;;2.42;1.50;;;;;;;;;;4953934;28;20106;-73
2022/07/19 12:18:44;;;;;;;3.75;1.33;;;;;;;;;;4953397;28;20039;-75
2022/07/19 12:21:23;;;;;;;5.32;1.67;;;;;;;;;;4953625;28;20061;-73
2022/07/19 12:24:10;;;;;;;4.32;1.50;;;;;;;;;;4953699;28;20035;-76
2022/07/19 12:26:38;;;;;;;3.25;1.85;;;;;;;;;;4953281;28;20036;-74
2022/07/19 12:29:18;;;;;;;11.70;7.32;;;;;;;;;;4953580;28;20557;-73
2022/07/19 12:31:45;;;;;;;3.00;1.80;;;;;;;;;;4953722;28;20036;-71
2022/07/19 12:34:12;;;;;;;3.38;1.95;;;;;;;;;;4953228;28;20041;-75
2022/07/19 12:36:38;;;;;;;3.00;1.70;;;;;;;;;;4950876;28;20040;-72
2022/07/19 12:39:04;;;;;;;2.80;1.73;;;;;;;;;;4953279;28;20023;-72
2022/07/19 12:41:30;;;;;;;3.45;1.60;;;;;;;;;;4952750;28;20039;-71
2022/07/19 12:43:56;;;;;;;5.65;2.70;;;;;;;;;;4953152;28;20032;-72
2022/07/19 12:46:22;;;;;;;3.70;1.67;;;;;;;;;;4951035;28;20067;-74
2022/07/19 12:48:47;;;;;;;3.70;1.95;;;;;;;;;;4952639;28;20098;-74
2022/07/19 12:51:13;;;;;;;3.30;1.80;;;;;;;;;;4953100;28;20039;-71
2022/07/19 12:53:39;;;;;;;3.25;2.00;;;;;;;;;;4953289;28;20028;-73
2022/07/19 12:56:05;;;;;;;2.60;1.65;;;;;;;;;;4953208;28;20174;-71
2022/07/19 13:01:16;;;;;;;3.97;2.05;;;;;;;;;;4976101;28;20050;-73
2022/07/19 13:03:42;;;;;;;3.90;1.50;;;;;;;;;;4975606;28;20030;-70
2022/07/19 13:06:08;;;;;;;2.65;1.40;;;;;;;;;;4957692;28;20050;-72
2022/07/19 13:08:34;;;;;;;4.28;1.58;;;;;;;;;;4956557;28;20020;-73
2022/07/19 13:11:00;;;;;;;3.40;1.52;;;;;;;;;;4955765;28;20551;-69
2022/07/19 13:13:25;;;;;;;3.88;1.83;;;;;;;;;;4956552;28;20050;-72
2022/07/19 13:15:52;;;;;;;5.20;1.80;;;;;;;;;;4956530;29;20398;-71
2022/07/19 13:18:18;;;;;;;3.05;1.40;;;;;;;;;;4974212;28;20199;-72
2022/07/19 13:20:43;;;;;;;2.40;1.70;;;;;;;;;;4975898;28;20030;-74
2022/07/19 13:23:10;;;;;;;4.55;1.75;;;;;;;;;;4975082;28;20544;-70
2022/07/19 13:25:36;;;;;;;5.88;1.70;;;;;;;;;;4975146;28;20046;-72
2022/07/19 13:28:03;;;;;;;2.00;1.58;;;;;;;;;;4975489;28;20043;-72
2022/07/19 13:30:30;;;;;;;4.80;2.13;;;;;;;;;;4975390;28;20066;-70
2022/07/19 13:32:55;;;;;;;3.90;1.92;;;;;;;;;;4975302;28;20056;-71
2022/07/19 13:35:22;;;;;;;4.00;1.80;;;;;;;;;;4974677;28;20508;-73
2022/07/19 13:37:48;;;;;;;5.47;2.17;;;;;;;;;;4975394;28;20386;-73
2022/07/19 13:40:14;;;;;;;4.30;1.75;;;;;;;;;;4974493;28;20123;-71
2022/07/19 13:42:41;;;;;;;6.10;1.80;;;;;;;;;;4975286;28;20031;-73
2022/07/19 13:45:07;;;;;;;2.65;1.80;;;;;;;;;;4975179;28;20110;-74
2022/07/19 13:47:34;;;;;;;2.45;1.98;;;;;;;;;;4974996;28;20483;-72
2022/07/19 13:50:00;;;;;;;3.47;2.67;;;;;;;;;;4975097;28;20389;-74
2022/07/19 13:52:26;;;;;;;5.55;2.63;;;;;;;;;;4975547;28;20425;-70
2022/07/19 13:54:52;;;;;;;6.20;2.50;;;;;;;;;;4974668;28;20089;-73
2022/07/19 13:57:17;;;;;;;4.47;2.65;;;;;;;;;;4975060;28;20027;-73
2022/07/19 13:59:43;;;;;;;5.50;2.35;;;;;;;;;;4974868;28;20031;-71
2022/07/19 14:02:11;;;;;;;2.85;2.08;;;;;;;;;;4973616;28;20142;-70
2022/07/19 14:04:37;;;;;;;3.47;1.70;;;;;;;;;;4974309;28;20039;-71
2022/07/19 14:07:03;;;;;;;3.58;1.80;;;;;;;;;;4974495;28;20488;-72
2022/07/19 14:09:29;;;;;;;3.55;1.90;;;;;;;;;;4973988;28;20226;-72
2022/07/19 14:11:55;;;;;;;4.40;2.30;;;;;;;;;;4975052;28;20027;-71
2022/07/19 14:14:21;;;;;;;2.30;1.67;;;;;;;;;;4974110;28;20035;-71
2022/07/19 14:16:48;;;;;;;2.75;1.80;;;;;;;;;;4974224;28;20054;-72
2022/07/19 14:19:14;;;;;;;3.38;1.80;;;;;;;;;;4974870;28;20042;-71
2022/07/19 14:21:40;;;;;;;5.72;1.83;;;;;;;;;;4956081;28;20039;-73
2022/07/19 14:24:09;;;;;;;4.72;1.83;;;;;;;;;;4954627;29;20046;-74
2022/07/19 14:26:35;;;;;;;3.28;1.83;;;;;;;;;;4961550;28;20030;-73
2022/07/19 14:29:02;;;;;;;10.75;1.83;;;;;;;;;;4974080;28;20074;-73
2022/07/19 14:31:28;;;;;;;3.97;1.80;;;;;;;;;;4973961;28;20482;-72
2022/07/19 14:33:54;;;;;;;3.58;2.00;;;;;;;;;;4974506;28;20086;-72
2022/07/19 14:36:19;;;;;;;3.63;2.08;;;;;;;;;;4974336;28;20077;-71
2022/07/19 14:38:45;;;;;;;5.78;1.92;;;;;;;;;;4973490;28;20047;-71
2022/07/19 14:41:11;;;;;;;3.05;1.75;;;;;;;;;;4974606;28;20097;-73
2022/07/19 14:43:37;;;;;;;4.45;1.95;;;;;;;;;;4974312;28;20130;-72
2022/07/19 14:46:03;;;;;;;3.60;1.80;;;;;;;;;;4973946;28;20110;-75
2022/07/19 14:48:29;;;;;;;6.88;1.92;;;;;;;;;;4974464;28;20066;-72
2022/07/19 14:50:54;;;;;;;3.30;1.90;;;;;;;;;;4965787;28;20037;-73
2022/07/19 14:53:20;;;;;;;3.83;2.38;;;;;;;;;;4951478;28;20391;-74